createdAt,value
2023-01-26T00:00:23.675Z,22.70
2023-01-26T00:01:23.663Z,21.90
2023-01-26T00:02:23.672Z,22.70
2023-01-26T00:03:23.737Z,22.50
2023-01-26T00:04:23.666Z,22.30
2023-01-26T00:05:23.650Z,23.30
2023-01-26T00:06:23.660Z,22.40
2023-01-26T00:07:23.656Z,22.70
2023-01-26T00:08:24.326Z,21.80
2023-01-26T00:09:23.620Z,23.10
2023-01-26T00:10:23.619Z,20.60
2023-01-26T00:11:23.608Z,21.10
2023-01-26T00:12:23.619Z,20.00
2023-01-26T00:13:23.599Z,20.80
2023-01-26T00:14:24.459Z,21.20
2023-01-26T00:15:24.503Z,22.70
2023-01-26T00:16:23.646Z,22.00
2023-01-26T00:17:23.576Z,20.80
2023-01-26T00:18:23.597Z,22.20
2023-01-26T00:19:23.583Z,21.20
2023-01-26T00:20:23.568Z,21.30
2023-01-26T00:21:23.547Z,21.40
2023-01-26T00:22:23.536Z,20.90
2023-01-26T00:23:23.584Z,21.40
2023-01-26T00:24:24.759Z,21.10
2023-01-26T00:25:24.046Z,20.80
2023-01-26T00:26:23.527Z,22.30
2023-01-26T00:27:24.001Z,23.00
2023-01-26T00:28:23.513Z,21.60
2023-01-26T00:29:24.298Z,22.70
2023-01-26T00:30:23.921Z,22.80
2023-01-26T00:31:23.534Z,23.10
2023-01-26T00:32:23.483Z,21.00
2023-01-26T00:33:23.483Z,23.20
2023-01-26T00:34:23.472Z,22.80
2023-01-26T00:35:23.451Z,24.30
2023-01-26T00:36:23.488Z,24.40
2023-01-26T00:37:23.440Z,23.40
2023-01-26T00:38:23.469Z,23.30
2023-01-26T00:39:23.438Z,24.60
2023-01-26T00:40:23.444Z,23.70
2023-01-26T00:41:23.419Z,23.90
2023-01-26T00:42:23.429Z,24.40
2023-01-26T00:43:24.869Z,24.00
2023-01-26T00:44:23.419Z,23.90
2023-01-26T00:45:23.409Z,22.80
2023-01-26T00:46:23.422Z,24.70
2023-01-26T00:47:23.387Z,24.40
2023-01-26T00:48:24.770Z,24.70
2023-01-26T00:49:23.401Z,24.20
2023-01-26T00:50:23.379Z,23.80
2023-01-26T00:51:23.370Z,24.90
2023-01-26T00:52:23.384Z,24.60
2023-01-26T00:53:23.359Z,23.00
2023-01-26T00:54:23.375Z,24.00
2023-01-26T00:55:23.356Z,25.40
2023-01-26T00:56:23.752Z,26.20
2023-01-26T00:57:23.454Z,25.90
2023-01-26T00:58:23.335Z,25.20
2023-01-26T00:59:23.413Z,26.30
2023-01-26T01:00:23.315Z,25.90
2023-01-26T01:01:23.322Z,25.80
2023-01-26T01:02:23.304Z,24.50
2023-01-26T01:03:23.292Z,26.50
2023-01-26T01:04:23.377Z,26.50
2023-01-26T01:05:23.288Z,24.80
2023-01-26T01:06:23.285Z,26.00
2023-01-26T01:07:23.274Z,25.40
2023-01-26T01:08:23.280Z,25.40
2023-01-26T01:09:23.846Z,25.40
2023-01-26T01:10:23.258Z,25.50
2023-01-26T01:11:23.240Z,27.20
2023-01-26T01:12:23.260Z,24.90
2023-01-26T01:13:23.250Z,25.20
2023-01-26T01:14:23.281Z,27.00
2023-01-26T01:15:23.225Z,24.20
2023-01-26T01:16:23.267Z,25.50
2023-01-26T01:17:23.219Z,25.80
2023-01-26T01:18:23.380Z,24.70
2023-01-26T01:19:23.224Z,25.50
2023-01-26T01:20:23.204Z,25.80
2023-01-26T01:21:23.189Z,25.50
2023-01-26T01:22:23.211Z,25.60
2023-01-26T01:23:23.181Z,24.70
2023-01-26T01:24:23.287Z,25.20
2023-01-26T01:25:23.155Z,25.30
2023-01-26T01:26:23.234Z,24.50
2023-01-26T01:27:23.345Z,25.30
2023-01-26T01:28:23.355Z,25.50
2023-01-26T01:29:23.356Z,27.30
2023-01-26T01:30:23.365Z,24.90
2023-01-26T01:31:23.258Z,25.70
2023-01-26T01:32:23.384Z,24.40
2023-01-26T01:33:23.120Z,25.80
2023-01-26T01:34:23.122Z,24.80
2023-01-26T01:35:23.100Z,25.80
2023-01-26T01:36:23.116Z,25.10
2023-01-26T01:37:23.082Z,24.30
2023-01-26T01:38:23.112Z,24.50
2023-01-26T01:39:23.088Z,24.80
2023-01-26T01:40:23.131Z,24.20
2023-01-26T01:41:23.061Z,24.50
2023-01-26T01:42:23.067Z,25.50
2023-01-26T01:43:23.049Z,24.40
2023-01-26T01:44:23.523Z,23.60
2023-01-26T01:45:23.041Z,24.90
2023-01-26T01:46:23.079Z,24.90
2023-01-26T01:47:23.033Z,23.60
2023-01-26T01:48:23.303Z,24.50
2023-01-26T01:49:23.034Z,25.40
2023-01-26T01:50:23.012Z,25.00
2023-01-26T01:51:22.997Z,24.40
2023-01-26T01:52:23.001Z,25.40
2023-01-26T01:53:22.997Z,24.30
2023-01-26T01:54:23.005Z,24.30
2023-01-26T01:55:23.006Z,25.50
2023-01-26T01:56:23.002Z,24.80
2023-01-26T01:57:22.970Z,23.80
2023-01-26T01:58:22.964Z,25.60
2023-01-26T01:59:23.155Z,23.60
2023-01-26T02:00:22.982Z,24.30
2023-01-26T02:01:23.174Z,25.40
2023-01-26T02:02:22.943Z,24.20
2023-01-26T02:03:22.962Z,23.20
2023-01-26T02:04:23.199Z,24.50
2023-01-26T02:05:22.918Z,25.20
2023-01-26T02:06:22.911Z,24.80
2023-01-26T02:07:22.914Z,23.60
2023-01-26T02:08:22.903Z,24.30
2023-01-26T02:09:23.230Z,23.60
2023-01-26T02:10:22.891Z,25.10
2023-01-26T02:11:22.890Z,23.70
2023-01-26T02:12:22.881Z,24.90
2023-01-26T02:13:23.512Z,23.50
2023-01-26T02:14:22.880Z,25.40
2023-01-26T02:15:23.269Z,24.20
2023-01-26T02:16:23.436Z,25.00
2023-01-26T02:17:22.989Z,24.10
2023-01-26T02:18:22.837Z,24.50
2023-01-26T02:19:22.856Z,24.60
2023-01-26T02:20:22.832Z,24.40
2023-01-26T02:21:22.821Z,23.70
2023-01-26T02:22:22.817Z,24.20
2023-01-26T02:23:22.810Z,23.30
2023-01-26T02:24:22.913Z,24.90
2023-01-26T02:25:22.797Z,24.10
2023-01-26T02:26:22.835Z,23.60
2023-01-26T02:27:23.466Z,24.40
2023-01-26T02:28:22.792Z,25.10
2023-01-26T02:29:22.784Z,24.30
2023-01-26T02:30:22.768Z,24.60
2023-01-26T02:31:22.941Z,24.40
2023-01-26T02:32:22.985Z,23.90
2023-01-26T02:33:22.753Z,23.80
2023-01-26T02:34:23.004Z,25.10
2023-01-26T02:35:23.128Z,25.10
2023-01-26T02:36:22.736Z,24.00
2023-01-26T02:37:22.731Z,24.90
2023-01-26T02:38:22.733Z,23.40
2023-01-26T02:39:22.850Z,23.40
2023-01-26T02:40:22.832Z,23.70
2023-01-26T02:41:22.699Z,25.30
2023-01-26T02:42:22.698Z,24.60
2023-01-26T02:43:22.681Z,25.60
2023-01-26T02:44:23.282Z,25.00
2023-01-26T02:45:23.504Z,26.80
2023-01-26T02:46:23.622Z,24.50
2023-01-26T02:47:23.593Z,24.80
2023-01-26T02:48:23.499Z,23.70
2023-01-26T02:49:22.908Z,24.70
2023-01-26T02:50:23.560Z,25.70
2023-01-26T02:51:22.732Z,25.10
2023-01-26T02:52:22.852Z,24.70
2023-01-26T02:53:22.648Z,23.70
2023-01-26T02:54:23.428Z,25.60
2023-01-26T02:55:23.595Z,24.90
2023-01-26T02:56:23.496Z,24.00
2023-01-26T02:57:22.607Z,23.70
2023-01-26T02:58:23.388Z,24.50
2023-01-26T02:59:22.768Z,25.50
2023-01-26T03:00:23.625Z,24.90
2023-01-26T03:01:23.402Z,26.80
2023-01-26T03:02:23.494Z,25.20
2023-01-26T03:03:23.600Z,25.80
2023-01-26T03:04:23.502Z,25.20
2023-01-26T03:05:22.653Z,26.10
2023-01-26T03:06:22.610Z,26.10
2023-01-26T03:07:22.544Z,26.20
2023-01-26T03:08:22.622Z,25.80
2023-01-26T03:09:22.639Z,25.90
2023-01-26T03:10:22.531Z,25.60
2023-01-26T03:11:22.742Z,25.90
2023-01-26T03:12:22.511Z,25.30
2023-01-26T03:13:22.671Z,26.60
2023-01-26T03:14:22.692Z,26.30
2023-01-26T03:15:22.495Z,26.70
2023-01-26T03:16:22.555Z,27.80
2023-01-26T03:17:22.990Z,27.60
2023-01-26T03:18:22.803Z,25.60
2023-01-26T03:19:23.012Z,27.00
2023-01-26T03:20:23.118Z,26.40
2023-01-26T03:21:22.828Z,27.20
2023-01-26T03:22:23.238Z,27.20
2023-01-26T03:23:22.639Z,27.20
2023-01-26T03:24:23.436Z,26.20
2023-01-26T03:25:22.430Z,26.80
2023-01-26T03:26:22.438Z,28.50
2023-01-26T03:27:23.353Z,27.80
2023-01-26T03:28:23.238Z,29.50
2023-01-26T03:29:23.409Z,27.10
2023-01-26T03:30:23.331Z,27.40
2023-01-26T03:31:22.478Z,27.10
2023-01-26T03:32:22.492Z,27.20
2023-01-26T03:33:23.042Z,27.30
2023-01-26T03:34:22.385Z,27.30
2023-01-26T03:35:23.039Z,27.80
2023-01-26T03:36:22.414Z,28.00
2023-01-26T03:37:22.361Z,27.60
2023-01-26T03:38:22.433Z,28.60
2023-01-26T03:39:22.344Z,28.00
2023-01-26T03:40:23.391Z,28.00
2023-01-26T03:41:23.272Z,27.90
2023-01-26T03:42:23.183Z,27.00
2023-01-26T03:43:22.452Z,27.20
2023-01-26T03:44:22.314Z,28.00
2023-01-26T03:45:22.997Z,26.60
2023-01-26T03:46:22.360Z,26.70
2023-01-26T03:47:22.290Z,26.90
2023-01-26T03:48:22.294Z,26.40
2023-01-26T03:49:22.285Z,27.70
2023-01-26T03:50:22.279Z,27.90
2023-01-26T03:51:22.309Z,26.70
2023-01-26T03:52:22.321Z,26.50
2023-01-26T03:53:22.332Z,26.70
2023-01-26T03:54:22.249Z,28.60
2023-01-26T03:55:22.248Z,26.80
2023-01-26T03:56:22.342Z,26.60
2023-01-26T03:57:22.357Z,26.80
2023-01-26T03:58:22.230Z,27.90
2023-01-26T03:59:22.376Z,29.40
2023-01-26T04:00:22.269Z,28.10
2023-01-26T04:01:22.207Z,28.40
2023-01-26T04:02:22.425Z,27.40
2023-01-26T04:03:22.211Z,27.50
2023-01-26T04:04:22.205Z,26.80
2023-01-26T04:05:22.186Z,27.00
2023-01-26T04:06:22.174Z,26.10
2023-01-26T04:07:22.163Z,25.80
2023-01-26T04:08:22.354Z,27.20
2023-01-26T04:09:22.147Z,27.40
2023-01-26T04:10:22.176Z,27.40
2023-01-26T04:11:22.140Z,26.10
2023-01-26T04:12:22.143Z,26.20
2023-01-26T04:13:22.144Z,25.10
2023-01-26T04:14:22.128Z,25.60
2023-01-26T04:15:22.151Z,25.10
2023-01-26T04:16:22.156Z,27.10
2023-01-26T04:17:22.200Z,25.10
2023-01-26T04:18:22.092Z,26.10
2023-01-26T04:19:22.098Z,24.60
2023-01-26T04:20:22.106Z,24.80
2023-01-26T04:21:22.082Z,25.70
2023-01-26T04:22:22.234Z,23.60
2023-01-26T04:23:22.169Z,24.90
2023-01-26T04:24:22.125Z,25.60
2023-01-26T04:25:22.093Z,24.50
2023-01-26T04:26:22.045Z,25.50
2023-01-26T04:27:22.075Z,25.70
2023-01-26T04:28:22.267Z,26.30
2023-01-26T04:29:23.976Z,24.20
2023-01-26T04:30:22.060Z,24.70
2023-01-26T04:31:22.154Z,23.00
2023-01-26T04:32:22.015Z,22.70
2023-01-26T04:33:22.040Z,23.30
2023-01-26T04:34:22.006Z,24.90
2023-01-26T04:35:22.019Z,23.20
2023-01-26T04:36:21.994Z,23.70
2023-01-26T04:37:21.979Z,22.40
2023-01-26T04:38:21.964Z,25.00
2023-01-26T04:39:22.039Z,24.30
2023-01-26T04:40:22.089Z,25.10
2023-01-26T04:41:21.953Z,23.00
2023-01-26T04:42:21.943Z,24.20
2023-01-26T04:43:22.620Z,24.10
2023-01-26T04:44:21.934Z,23.50
2023-01-26T04:45:21.976Z,24.30
2023-01-26T04:46:21.946Z,25.10
2023-01-26T04:47:21.925Z,24.90
2023-01-26T04:48:21.913Z,26.00
2023-01-26T04:49:21.911Z,26.20
2023-01-26T04:50:21.923Z,26.60
2023-01-26T04:51:21.917Z,24.60
2023-01-26T04:52:21.890Z,26.20
2023-01-26T04:53:22.055Z,25.80
2023-01-26T04:54:21.879Z,26.10
2023-01-26T04:55:21.876Z,26.60
2023-01-26T04:56:21.897Z,27.50
2023-01-26T04:57:21.867Z,26.80
2023-01-26T04:58:21.849Z,26.90
2023-01-26T04:59:21.858Z,26.20
2023-01-26T05:00:21.838Z,27.20
2023-01-26T05:01:21.906Z,25.80
2023-01-26T05:02:21.826Z,26.10
2023-01-26T05:03:21.904Z,28.60
2023-01-26T05:04:21.920Z,24.90
2023-01-26T05:05:21.834Z,26.20
2023-01-26T05:06:21.855Z,25.50
2023-01-26T05:07:21.787Z,28.80
2023-01-26T05:08:21.778Z,27.60
2023-01-26T05:09:21.774Z,27.20
2023-01-26T05:10:21.938Z,27.30
2023-01-26T05:11:21.983Z,27.30
2023-01-26T05:12:21.793Z,27.40
2023-01-26T05:13:21.889Z,26.70
2023-01-26T05:14:21.940Z,28.20
2023-01-26T05:15:22.062Z,26.30
2023-01-26T05:16:21.755Z,26.00
2023-01-26T05:17:21.852Z,27.40
2023-01-26T05:18:21.792Z,26.50
2023-01-26T05:19:21.781Z,26.00
2023-01-26T05:20:21.922Z,28.40
2023-01-26T05:21:21.727Z,28.30
2023-01-26T05:22:22.137Z,28.20
2023-01-26T05:23:22.610Z,28.00
2023-01-26T05:24:21.744Z,27.40
2023-01-26T05:25:22.172Z,29.10
2023-01-26T05:26:22.183Z,30.20
2023-01-26T05:27:21.974Z,32.20
2023-01-26T05:28:21.659Z,33.50
2023-01-26T05:29:22.218Z,32.90
2023-01-26T05:30:21.648Z,32.00
2023-01-26T05:31:21.705Z,30.80
2023-01-26T05:32:21.663Z,28.10
2023-01-26T05:33:22.290Z,27.80
2023-01-26T05:34:22.080Z,29.80
2023-01-26T05:35:21.626Z,29.50
2023-01-26T05:36:21.621Z,29.10
2023-01-26T05:37:22.335Z,29.50
2023-01-26T05:38:22.335Z,28.80
2023-01-26T05:39:21.895Z,29.20
2023-01-26T05:40:21.594Z,27.40
2023-01-26T05:41:21.641Z,26.60
2023-01-26T05:42:21.667Z,27.10
2023-01-26T05:43:21.584Z,28.00
2023-01-26T05:44:21.572Z,28.60
2023-01-26T05:45:21.593Z,28.80
2023-01-26T05:46:21.599Z,27.70
2023-01-26T05:47:21.569Z,30.60
2023-01-26T05:48:21.543Z,29.00
2023-01-26T05:49:21.630Z,28.50
2023-01-26T05:50:21.661Z,28.50
2023-01-26T05:51:21.622Z,28.70
2023-01-26T05:52:21.529Z,30.40
2023-01-26T05:53:21.543Z,31.10
2023-01-26T05:54:21.650Z,29.70
2023-01-26T05:55:21.711Z,33.00
2023-01-26T05:56:21.492Z,32.00
2023-01-26T05:57:21.508Z,31.40
2023-01-26T05:58:21.759Z,33.60
2023-01-26T05:59:21.718Z,30.60
2023-01-26T06:00:21.783Z,30.40
2023-01-26T06:01:21.820Z,31.10
2023-01-26T06:02:21.873Z,30.90
2023-01-26T06:03:21.602Z,30.50
2023-01-26T06:04:21.875Z,31.10
2023-01-26T06:05:21.456Z,32.40
2023-01-26T06:06:21.568Z,31.40
2023-01-26T06:07:21.564Z,33.00
2023-01-26T06:08:21.887Z,32.20
2023-01-26T06:09:21.512Z,32.10
2023-01-26T06:10:21.746Z,32.30
2023-01-26T06:11:21.666Z,34.10
2023-01-26T06:12:21.476Z,32.60
2023-01-26T06:13:21.583Z,31.80
2023-01-26T06:14:21.403Z,34.10
2023-01-26T06:15:21.400Z,32.20
2023-01-26T06:16:21.453Z,34.80
2023-01-26T06:17:21.391Z,34.80
2023-01-26T06:18:21.385Z,36.30
2023-01-26T06:19:21.369Z,34.30
2023-01-26T06:20:21.526Z,33.40
2023-01-26T06:21:21.373Z,33.30
2023-01-26T06:22:21.482Z,32.60
2023-01-26T06:23:21.352Z,35.40
2023-01-26T06:24:21.551Z,35.20
2023-01-26T06:25:21.518Z,36.20
2023-01-26T06:26:21.535Z,36.10
2023-01-26T06:27:21.351Z,38.00
2023-01-26T06:28:21.398Z,35.60
2023-01-26T06:29:21.308Z,36.40
2023-01-26T06:30:21.569Z,36.00
2023-01-26T06:31:21.670Z,32.40
2023-01-26T06:32:21.620Z,34.60
2023-01-26T06:33:21.615Z,32.00
2023-01-26T06:34:21.419Z,34.10
2023-01-26T06:35:21.641Z,33.70
2023-01-26T06:36:21.657Z,34.10
2023-01-26T06:37:21.667Z,34.10
2023-01-26T06:38:21.661Z,36.30
2023-01-26T06:39:21.474Z,37.70
2023-01-26T06:40:21.710Z,34.30
2023-01-26T06:41:21.735Z,31.20
2023-01-26T06:42:21.243Z,33.60
2023-01-26T06:43:21.755Z,32.40
2023-01-26T06:44:21.217Z,31.20
2023-01-26T06:45:21.216Z,31.00
2023-01-26T06:46:21.211Z,33.30
2023-01-26T06:47:22.645Z,31.90
2023-01-26T06:48:21.803Z,33.40
2023-01-26T06:49:21.345Z,32.80
2023-01-26T06:50:21.280Z,32.60
2023-01-26T06:51:21.591Z,33.60
2023-01-26T06:52:21.336Z,33.50
2023-01-26T06:53:21.321Z,33.70
2023-01-26T06:54:21.640Z,33.50
2023-01-26T06:55:21.147Z,33.10
2023-01-26T06:56:21.178Z,34.20
2023-01-26T06:57:21.213Z,32.90
2023-01-26T06:58:21.150Z,33.00
2023-01-26T06:59:21.132Z,33.70
2023-01-26T07:00:21.319Z,32.70
2023-01-26T07:01:21.317Z,30.70
2023-01-26T07:02:21.393Z,32.10
2023-01-26T07:03:21.279Z,31.70
2023-01-26T07:04:21.088Z,32.70
2023-01-26T07:05:21.097Z,32.70
2023-01-26T07:06:21.092Z,32.20
2023-01-26T07:07:21.076Z,31.20
2023-01-26T07:08:21.453Z,31.00
2023-01-26T07:09:21.333Z,31.30
2023-01-26T07:10:21.836Z,32.60
2023-01-26T07:11:21.338Z,32.30
2023-01-26T07:12:21.035Z,30.20
2023-01-26T07:13:21.441Z,31.00
2023-01-26T07:14:21.395Z,32.40
2023-01-26T07:15:21.881Z,30.20
2023-01-26T07:16:21.439Z,31.50
2023-01-26T07:17:21.393Z,31.00
2023-01-26T07:18:21.025Z,31.00
2023-01-26T07:19:21.392Z,31.00
2023-01-26T07:20:21.161Z,30.90
2023-01-26T07:21:21.071Z,29.20
2023-01-26T07:22:21.631Z,33.20
2023-01-26T07:23:21.009Z,32.60
2023-01-26T07:24:21.031Z,28.70
2023-01-26T07:25:21.041Z,30.80
2023-01-26T07:26:21.243Z,31.10
2023-01-26T07:27:21.501Z,33.10
2023-01-26T07:28:21.079Z,34.30
2023-01-26T07:29:20.960Z,34.30
2023-01-26T07:30:21.772Z,33.70
2023-01-26T07:31:21.896Z,32.20
2023-01-26T07:32:21.178Z,33.50
2023-01-26T07:33:21.064Z,33.40
2023-01-26T07:34:20.918Z,33.40
2023-01-26T07:35:20.968Z,32.80
2023-01-26T07:36:21.015Z,34.30
2023-01-26T07:37:21.005Z,33.10
2023-01-26T07:38:20.956Z,33.70
2023-01-26T07:39:21.173Z,35.60
2023-01-26T07:40:21.223Z,32.20
2023-01-26T07:41:20.902Z,33.30
2023-01-26T07:42:20.845Z,33.10
2023-01-26T07:43:20.926Z,33.60
2023-01-26T07:44:21.394Z,33.00
2023-01-26T07:45:21.209Z,30.30
2023-01-26T07:46:21.284Z,31.70
2023-01-26T07:47:21.274Z,31.80
2023-01-26T07:48:21.005Z,30.80
2023-01-26T07:49:21.393Z,31.10
2023-01-26T07:50:20.802Z,32.50
2023-01-26T07:51:20.814Z,33.50
2023-01-26T07:52:20.925Z,32.70
2023-01-26T07:53:21.317Z,33.20
2023-01-26T07:54:21.361Z,32.40
2023-01-26T07:55:21.020Z,35.40
2023-01-26T07:56:21.005Z,32.00
2023-01-26T07:57:21.279Z,31.60
2023-01-26T07:58:20.918Z,31.10
2023-01-26T07:59:21.092Z,30.40
2023-01-26T08:00:20.756Z,31.00
2023-01-26T08:01:21.642Z,28.40
2023-01-26T08:02:20.945Z,31.60
2023-01-26T08:03:21.031Z,31.90
2023-01-26T08:04:21.144Z,31.10
2023-01-26T08:05:21.747Z,28.00
2023-01-26T08:06:21.315Z,27.70
2023-01-26T08:07:20.719Z,27.80
2023-01-26T08:08:20.696Z,28.00
2023-01-26T08:09:21.502Z,26.40
2023-01-26T08:10:20.702Z,26.00
2023-01-26T08:11:20.678Z,27.50
2023-01-26T08:12:20.707Z,27.40
2023-01-26T08:13:30.073Z,26.10
2023-01-26T08:14:20.715Z,27.50
2023-01-26T08:15:20.726Z,28.70
2023-01-26T08:16:20.771Z,27.70
2023-01-26T08:17:20.654Z,28.00
2023-01-26T08:18:20.635Z,28.60
2023-01-26T08:19:22.142Z,28.00
2023-01-26T08:20:20.625Z,28.00
2023-01-26T08:21:20.682Z,28.00
2023-01-26T08:22:20.715Z,27.90
2023-01-26T08:23:20.713Z,28.00
2023-01-26T08:24:20.744Z,28.10
2023-01-26T08:25:20.591Z,26.40
2023-01-26T08:26:20.928Z,28.90
2023-01-26T08:27:20.592Z,27.90
2023-01-26T08:28:22.030Z,28.00
2023-01-26T08:29:20.744Z,27.20
2023-01-26T08:30:20.805Z,27.60
2023-01-26T08:31:20.942Z,26.60
2023-01-26T08:32:20.822Z,27.30
2023-01-26T08:33:20.564Z,26.00
2023-01-26T08:34:20.649Z,27.40
2023-01-26T08:35:20.763Z,27.00
2023-01-26T08:36:22.622Z,27.50
2023-01-26T08:37:20.877Z,26.40
2023-01-26T08:38:20.526Z,27.20
2023-01-26T08:39:20.546Z,25.80
2023-01-26T08:40:20.927Z,26.50
2023-01-26T08:41:20.608Z,25.90
2023-01-26T08:42:22.566Z,27.00
2023-01-26T08:43:20.485Z,26.80
2023-01-26T08:44:20.496Z,25.60
2023-01-26T08:45:20.629Z,26.20
2023-01-26T08:46:20.646Z,25.00
2023-01-26T08:47:20.797Z,25.90
2023-01-26T08:48:20.534Z,24.30
2023-01-26T08:49:20.539Z,24.90
2023-01-26T08:50:20.586Z,25.40
2023-01-26T08:51:20.434Z,25.40
2023-01-26T08:52:20.484Z,25.40
2023-01-26T08:53:20.591Z,23.60
2023-01-26T08:54:20.651Z,24.30
2023-01-26T08:55:20.401Z,25.10
2023-01-26T08:56:20.722Z,25.40
2023-01-26T08:57:20.435Z,25.00
2023-01-26T08:58:20.551Z,23.90
2023-01-26T08:59:20.851Z,24.10
2023-01-26T09:00:20.400Z,25.80
2023-01-26T09:01:20.841Z,25.50
2023-01-26T09:02:20.507Z,25.00
2023-01-26T09:03:20.518Z,25.80
2023-01-26T09:04:20.439Z,25.30
2023-01-26T09:05:21.069Z,25.00
2023-01-26T09:06:20.447Z,25.70
2023-01-26T09:07:21.014Z,24.50
2023-01-26T09:08:20.529Z,25.70
2023-01-26T09:09:20.678Z,26.80
2023-01-26T09:10:20.327Z,25.40
2023-01-26T09:11:20.680Z,27.90
2023-01-26T09:12:20.308Z,25.40
2023-01-26T09:13:20.316Z,26.40
2023-01-26T09:14:20.882Z,26.90
2023-01-26T09:15:20.297Z,27.00
2023-01-26T09:16:20.373Z,27.50
2023-01-26T09:17:21.042Z,25.90
2023-01-26T09:18:20.285Z,26.20
2023-01-26T09:19:20.329Z,28.20
2023-01-26T09:20:20.342Z,28.00
2023-01-26T09:21:20.343Z,27.30
2023-01-26T09:22:20.254Z,28.80
2023-01-26T09:23:20.253Z,27.10
2023-01-26T09:24:20.285Z,26.50
2023-01-26T09:25:20.265Z,27.10
2023-01-26T09:26:20.277Z,27.50
2023-01-26T09:27:20.220Z,29.20
2023-01-26T09:28:20.211Z,28.90
2023-01-26T09:29:20.214Z,27.30
2023-01-26T09:30:20.364Z,29.30
2023-01-26T09:31:20.273Z,29.30
2023-01-26T09:32:20.228Z,30.20
2023-01-26T09:33:20.325Z,27.60
2023-01-26T09:34:20.218Z,29.20
2023-01-26T09:35:20.162Z,28.10
2023-01-26T09:36:20.405Z,28.20
2023-01-26T09:37:20.163Z,28.70
2023-01-26T09:38:20.432Z,29.20
2023-01-26T09:39:20.427Z,26.70
2023-01-26T09:40:20.135Z,28.90
2023-01-26T09:41:20.139Z,28.00
2023-01-26T09:42:20.379Z,26.70
2023-01-26T09:43:20.487Z,27.70
2023-01-26T09:44:20.444Z,28.00
2023-01-26T09:45:20.514Z,26.90
2023-01-26T09:46:20.134Z,28.00
2023-01-26T09:47:20.544Z,28.80
2023-01-26T09:48:20.559Z,27.80
2023-01-26T09:49:20.335Z,28.20
2023-01-26T09:50:20.408Z,26.50
2023-01-26T09:51:20.594Z,26.70
2023-01-26T09:52:20.063Z,28.00
2023-01-26T09:53:20.610Z,26.50
2023-01-26T09:54:20.624Z,26.20
2023-01-26T09:55:20.644Z,26.30
2023-01-26T09:56:20.651Z,27.10
2023-01-26T09:57:20.633Z,26.80
2023-01-26T09:58:20.031Z,24.60
2023-01-26T09:59:20.229Z,25.80
2023-01-26T10:00:20.018Z,26.20
2023-01-26T10:01:20.102Z,26.10
2023-01-26T10:02:20.028Z,26.40
2023-01-26T10:03:20.009Z,25.50
2023-01-26T10:04:20.023Z,24.50
2023-01-26T10:05:20.029Z,26.50
2023-01-26T10:06:19.977Z,25.60
2023-01-26T10:07:19.959Z,23.70
2023-01-26T10:08:19.978Z,24.50
2023-01-26T10:09:20.029Z,25.30
2023-01-26T10:10:20.065Z,25.60
2023-01-26T10:11:19.938Z,26.10
2023-01-26T10:12:20.059Z,24.80
2023-01-26T10:13:20.066Z,25.30
2023-01-26T10:14:20.088Z,23.70
2023-01-26T10:15:20.099Z,24.50
2023-01-26T10:16:20.108Z,24.20
2023-01-26T10:17:20.117Z,23.60
2023-01-26T10:18:20.140Z,26.20
2023-01-26T10:19:20.146Z,22.90
2023-01-26T10:20:20.166Z,26.00
2023-01-26T10:21:20.173Z,23.40
2023-01-26T10:22:19.993Z,23.50
2023-01-26T10:23:20.193Z,24.20
2023-01-26T10:24:19.914Z,24.30
2023-01-26T10:25:19.998Z,23.90
2023-01-26T10:26:20.194Z,23.30
2023-01-26T10:27:20.035Z,22.20
2023-01-26T10:28:20.265Z,24.00
2023-01-26T10:29:20.272Z,23.80
2023-01-26T10:30:20.064Z,24.70
2023-01-26T10:31:20.463Z,24.80
2023-01-26T10:32:19.825Z,25.30
2023-01-26T10:33:19.838Z,24.90
2023-01-26T10:34:19.833Z,23.80
2023-01-26T10:35:19.809Z,23.00
2023-01-26T10:36:19.817Z,24.10
2023-01-26T10:37:19.778Z,25.80
2023-01-26T10:38:19.788Z,25.60
2023-01-26T10:39:19.791Z,24.60
2023-01-26T10:40:19.798Z,24.50
2023-01-26T10:41:19.813Z,25.10
2023-01-26T10:42:19.757Z,25.00
2023-01-26T10:43:19.782Z,24.00
2023-01-26T10:44:19.828Z,25.10
2023-01-26T10:45:19.747Z,25.60
2023-01-26T10:46:19.881Z,26.70
2023-01-26T10:47:19.880Z,26.30
2023-01-26T10:48:19.716Z,28.90
2023-01-26T10:49:19.698Z,26.90
2023-01-26T10:50:19.928Z,27.00
2023-01-26T10:51:19.704Z,26.80
2023-01-26T10:52:19.921Z,25.20
2023-01-26T10:53:19.892Z,27.40
2023-01-26T10:54:19.966Z,27.20
2023-01-26T10:55:19.685Z,26.30
2023-01-26T10:56:19.992Z,26.30
2023-01-26T10:57:20.013Z,26.40
2023-01-26T10:58:20.022Z,26.90
2023-01-26T10:59:19.672Z,27.60
2023-01-26T11:00:19.663Z,27.90
2023-01-26T11:01:19.888Z,30.90
2023-01-26T11:02:19.815Z,28.40
2023-01-26T11:03:20.094Z,27.80
2023-01-26T11:04:19.611Z,26.70
2023-01-26T11:05:19.788Z,25.80
2023-01-26T11:06:20.112Z,25.20
2023-01-26T11:07:19.652Z,25.40
2023-01-26T11:08:19.625Z,26.80
2023-01-26T11:09:19.638Z,25.20
2023-01-26T11:10:19.618Z,25.60
2023-01-26T11:11:20.190Z,25.90
2023-01-26T11:12:19.871Z,27.40
2023-01-26T11:13:19.749Z,26.90
2023-01-26T11:14:19.601Z,27.50
2023-01-26T11:15:19.672Z,27.50
2023-01-26T11:16:19.991Z,26.00
2023-01-26T11:17:20.195Z,25.60
2023-01-26T11:18:20.113Z,24.80
2023-01-26T11:19:21.004Z,27.00
2023-01-26T11:20:19.548Z,26.80
2023-01-26T11:21:19.538Z,25.40
2023-01-26T11:22:19.596Z,24.30
2023-01-26T11:23:19.529Z,24.30
2023-01-26T11:24:19.691Z,25.40
2023-01-26T11:25:19.726Z,23.70
2023-01-26T11:26:19.538Z,23.70
2023-01-26T11:27:19.565Z,24.30
2023-01-26T11:28:19.594Z,23.50
2023-01-26T11:29:19.914Z,25.90
2023-01-26T11:30:19.774Z,24.00
2023-01-26T11:31:19.868Z,24.30
2023-01-26T11:32:19.990Z,22.80
2023-01-26T11:33:20.112Z,23.30
2023-01-26T11:34:19.537Z,23.60
2023-01-26T11:35:19.442Z,24.10
2023-01-26T11:36:19.421Z,22.30
2023-01-26T11:37:19.424Z,22.10
2023-01-26T11:38:20.236Z,21.40
2023-01-26T11:39:19.489Z,21.10
2023-01-26T11:40:19.541Z,22.10
2023-01-26T11:41:19.427Z,22.10
2023-01-26T11:42:20.379Z,21.20
2023-01-26T11:43:19.380Z,22.70
2023-01-26T11:44:19.936Z,22.80
2023-01-26T11:45:19.684Z,21.80
2023-01-26T11:46:19.912Z,20.90
2023-01-26T11:47:19.458Z,20.60
2023-01-26T11:48:19.469Z,21.60
2023-01-26T11:49:19.913Z,21.50
2023-01-26T11:50:19.412Z,21.90
2023-01-26T11:51:20.219Z,20.90
2023-01-26T11:52:19.372Z,21.90
2023-01-26T11:53:19.476Z,21.40
2023-01-26T11:54:19.330Z,21.70
2023-01-26T11:55:19.317Z,21.50
2023-01-26T11:56:19.319Z,23.20
2023-01-26T11:57:19.326Z,22.50
2023-01-26T11:58:19.290Z,22.40
2023-01-26T11:59:19.322Z,20.80
2023-01-26T12:00:29.555Z,22.80
2023-01-26T12:01:19.392Z,22.40
2023-01-26T12:02:19.484Z,20.60
2023-01-26T12:03:19.504Z,19.70
2023-01-26T12:04:19.535Z,20.40
2023-01-26T12:05:19.590Z,18.90
2023-01-26T12:06:19.599Z,19.90
2023-01-26T12:07:19.641Z,19.60
2023-01-26T12:08:19.731Z,19.70
2023-01-26T12:09:19.442Z,20.70
2023-01-26T12:10:19.233Z,20.20
2023-01-26T12:11:19.472Z,20.10
2023-01-26T12:12:19.329Z,20.70
2023-01-26T12:13:19.976Z,20.80
2023-01-26T12:14:20.007Z,19.40
2023-01-26T12:15:19.243Z,21.00
2023-01-26T12:16:19.473Z,19.90
2023-01-26T12:17:19.390Z,20.20
2023-01-26T12:18:19.553Z,20.20
2023-01-26T12:19:19.799Z,21.80
2023-01-26T12:20:21.207Z,20.90
2023-01-26T12:21:19.792Z,20.20
2023-01-26T12:22:19.343Z,21.60
2023-01-26T12:23:19.138Z,23.20
2023-01-26T12:24:43.417Z,22.30
2023-01-26T12:25:20.490Z,23.00
2023-01-26T12:26:19.503Z,23.70
2023-01-26T12:27:20.110Z,22.80
2023-01-26T12:28:19.237Z,22.80
2023-01-26T12:29:19.370Z,23.20
2023-01-26T12:30:19.628Z,24.90
2023-01-26T12:31:20.103Z,22.20
2023-01-26T12:32:19.183Z,22.60
2023-01-26T12:33:19.275Z,22.50
2023-01-26T12:34:19.856Z,22.20
2023-01-26T12:35:20.134Z,22.30
2023-01-26T12:36:19.128Z,22.90
2023-01-26T12:37:19.124Z,21.30
2023-01-26T12:38:19.116Z,21.40
2023-01-26T12:39:19.203Z,22.00
2023-01-26T12:40:19.044Z,23.10
2023-01-26T12:41:19.051Z,21.90
2023-01-26T12:42:19.038Z,23.20
2023-01-26T12:43:19.039Z,21.80
2023-01-26T12:44:19.068Z,22.40
2023-01-26T12:45:19.077Z,23.80
2023-01-26T12:46:19.138Z,22.20
2023-01-26T12:47:19.042Z,22.10
2023-01-26T12:48:19.101Z,22.10
2023-01-26T12:49:19.041Z,22.30
2023-01-26T12:50:19.135Z,20.90
2023-01-26T12:51:19.146Z,22.30
2023-01-26T12:52:19.154Z,21.50